Time,TemperatureF,DewpointF,PressureIn,WindDirection,WindDirectionDegrees,WindSpeedMPH,WindSpeedGustMPH,Humidity,HourlyPrecipIn,Conditions,Clouds,dailyrainin,SoftwareType,DateUTC
2013-03-07 00:06:00,37.8,30.0,30.05,North,360,0.0,4.0,73,0.00,,,0.00,weatherlink.com 1.10,2013-03-07 05:06:00,
2013-03-07 00:21:00,37.7,30.0,30.05,North,5,0.0,1.0,73,0.00,,,0.00,weatherlink.com 1.10,2013-03-07 05:21:00,
2013-03-07 00:36:00,37.5,30.0,30.05,NW,316,0.0,3.0,74,0.00,,,0.00,weatherlink.com 1.10,2013-03-07 05:36:00,
2013-03-07 00:51:00,37.3,29.0,30.05,North,360,0.0,3.0,73,0.00,,,0.00,weatherlink.com 1.10,2013-03-07 05:51:00,
2013-03-07 01:06:00,37.3,30.0,30.05,NNW,338,0.0,3.0,74,0.00,,,0.00,weatherlink.com 1.10,2013-03-07 06:06:00,
2013-03-07 01:21:00,37.3,30.0,30.06,North,355,0.0,3.0,74,0.00,,,0.00,weatherlink.com 1.10,2013-03-07 06:21:00,
2013-03-07 01:36:00,37.1,30.0,30.07,NW,318,1.0,2.0,74,0.00,,,0.00,weatherlink.com 1.10,2013-03-07 06:36:00,
2013-03-07 01:51:00,36.9,30.0,30.07,NW,318,0.0,1.0,75,0.00,,,0.00,weatherlink.com 1.10,2013-03-07 06:51:00,
2013-03-07 02:06:00,36.4,30.0,30.07,NW,318,0.0,0.0,76,0.00,,,0.00,weatherlink.com 1.10,2013-03-07 07:06:00,
2013-03-07 02:21:00,36.0,29.0,30.07,NW,317,0.0,1.0,77,0.00,,,0.00,weatherlink.com 1.10,2013-03-07 07:21:00,
2013-03-07 02:36:00,35.7,29.0,30.07,NW,318,0.0,1.0,77,0.00,,,0.00,weatherlink.com 1.10,2013-03-07 07:36:00,
2013-03-07 02:51:00,35.7,29.0,30.07,NW,318,0.0,2.0,77,0.00,,,0.00,weatherlink.com 1.10,2013-03-07 07:51:00,
2013-03-07 03:09:00,35.9,29.0,30.07,NNW,347,0.0,1.0,77,0.00,,,0.00,weatherlink.com 1.10,2013-03-07 08:09:00,
2013-03-07 03:21:00,35.8,29.0,30.07,North,351,0.0,2.0,77,0.00,,,0.00,weatherlink.com 1.10,2013-03-07 08:21:00,
2013-03-07 03:36:00,35.6,29.0,30.08,North,351,0.0,0.0,78,0.00,,,0.00,weatherlink.com 1.10,2013-03-07 08:36:00,
2013-03-07 03:51:00,35.3,29.0,30.08,North,351,0.0,2.0,78,0.00,,,0.00,weatherlink.com 1.10,2013-03-07 08:51:00,
2013-03-07 04:06:00,35.2,29.0,30.08,North,351,0.0,0.0,78,0.00,,,0.00,weatherlink.com 1.10,2013-03-07 09:06:00,
2013-03-07 04:21:00,34.9,29.0,30.08,North,350,0.0,0.0,78,0.00,,,0.00,weatherlink.com 1.10,2013-03-07 09:21:00,
2013-03-07 04:36:00,34.8,29.0,30.08,North,351,0.0,1.0,78,0.00,,,0.00,weatherlink.com 1.10,2013-03-07 09:36:00,
2013-03-07 04:51:00,34.7,29.0,30.09,North,360,0.0,2.0,78,0.00,,,0.00,weatherlink.com 1.10,2013-03-07 09:51:00,
2013-03-07 05:06:00,34.5,29.0,30.10,North,360,0.0,1.0,79,0.00,,,0.00,weatherlink.com 1.10,2013-03-07 10:06:00,
2013-03-07 05:21:00,34.3,28.0,30.11,North,360,0.0,1.0,79,0.00,,,0.00,weatherlink.com 1.10,2013-03-07 10:21:00,
2013-03-07 05:36:00,34.4,29.0,30.11,North,360,0.0,0.0,79,0.00,,,0.00,weatherlink.com 1.10,2013-03-07 10:36:00,
2013-03-07 05:51:00,34.3,28.0,30.11,North,360,0.0,0.0,79,0.00,,,0.00,weatherlink.com 1.10,2013-03-07 10:51:00,
2013-03-07 06:06:00,34.2,28.0,30.12,North,360,0.0,0.0,79,0.00,,,0.00,weatherlink.com 1.10,2013-03-07 11:06:00,
2013-03-07 06:21:00,34.0,28.0,30.13,North,360,0.0,0.0,79,0.00,,,0.00,weatherlink.com 1.10,2013-03-07 11:21:00,
2013-03-07 06:36:00,33.5,28.0,30.14,North,360,0.0,0.0,79,0.00,,,0.00,weatherlink.com 1.10,2013-03-07 11:36:00,
2013-03-07 06:51:00,33.3,28.0,30.15,North,360,0.0,0.0,80,0.00,,,0.00,weatherlink.com 1.10,2013-03-07 11:51:00,
2013-03-07 07:06:00,33.2,28.0,30.15,North,360,0.0,0.0,80,0.00,,,0.00,weatherlink.com 1.10,2013-03-07 12:06:00,
2013-03-07 07:21:00,33.3,28.0,30.16,North,360,0.0,1.0,80,0.00,,,0.00,weatherlink.com 1.10,2013-03-07 12:21:00,
2013-03-07 07:36:00,33.4,28.0,30.17,North,360,0.0,0.0,80,0.00,,,0.00,weatherlink.com 1.10,2013-03-07 12:36:00,
2013-03-07 07:51:00,33.9,28.0,30.18,North,360,0.0,1.0,80,0.00,,,0.00,weatherlink.com 1.10,2013-03-07 12:51:00,
2013-03-07 08:06:00,34.8,29.0,30.18,North,360,0.0,1.0,80,0.00,,,0.00,weatherlink.com 1.10,2013-03-07 13:06:00,
2013-03-07 08:21:00,36.4,30.0,30.19,NW,319,0.0,2.0,77,0.00,,,0.00,weatherlink.com 1.10,2013-03-07 13:21:00,
2013-03-07 08:36:00,38.5,31.0,30.19,North,360,0.0,3.0,74,0.00,,,0.00,weatherlink.com 1.10,2013-03-07 13:36:00,
2013-03-07 08:52:00,40.2,32.0,30.19,WNW,284,0.0,7.0,72,0.00,,,0.00,weatherlink.com 1.10,2013-03-07 13:52:00,
2013-03-07 09:07:00,41.6,32.0,30.19,NNE,19,5.0,5.0,68,0.00,,,0.00,weatherlink.com 1.10,2013-03-07 14:07:00,
2013-03-07 09:22:00,42.8,32.0,30.20,WSW,253,1.0,3.0,67,0.00,,,0.00,weatherlink.com 1.10,2013-03-07 14:22:00,
2013-03-07 09:37:00,43.8,31.0,30.20,NE,34,1.0,7.0,62,0.00,,,0.00,weatherlink.com 1.10,2013-03-07 14:37:00,
2013-03-07 09:52:00,45.2,32.0,30.20,SSW,211,1.0,7.0,61,0.00,,,0.00,weatherlink.com 1.10,2013-03-07 14:52:00,
2013-03-07 10:07:00,46.1,32.0,30.19,NW,325,0.0,4.0,58,0.00,,,0.00,weatherlink.com 1.10,2013-03-07 15:07:00,
2013-03-07 10:22:00,46.6,32.0,30.19,SSW,204,1.0,9.0,57,0.00,,,0.00,weatherlink.com 1.10,2013-03-07 15:22:00,
2013-03-07 10:52:00,47.2,32.0,30.19,SSE,147,0.0,4.0,57,0.00,,,0.00,weatherlink.com 1.10,2013-03-07 15:52:00,
2013-03-07 11:07:00,48.5,32.0,30.19,NNW,344,1.0,10.0,54,0.00,,,0.00,weatherlink.com 1.10,2013-03-07 16:07:00,
2013-03-07 11:22:00,49.0,33.0,30.19,SSW,202,0.0,3.0,54,0.00,,,0.00,weatherlink.com 1.10,2013-03-07 16:22:00,
2013-03-07 11:37:00,48.8,32.0,30.19,NNW,347,1.0,4.0,52,0.00,,,0.00,weatherlink.com 1.10,2013-03-07 16:37:00,
2013-03-07 11:52:00,48.8,32.0,30.18,North,5,2.0,2.0,52,0.00,,,0.00,weatherlink.com 1.10,2013-03-07 16:52:00,
2013-03-07 12:22:00,49.8,31.0,30.18,North,350,1.0,6.0,49,0.00,,,0.00,weatherlink.com 1.10,2013-03-07 17:22:00,
2013-03-07 12:37:00,48.6,31.0,30.18,North,360,3.0,6.0,50,0.00,,,0.00,weatherlink.com 1.10,2013-03-07 17:37:00,
2013-03-07 12:52:00,48.6,31.0,30.17,West,260,2.0,5.0,52,0.00,,,0.00,weatherlink.com 1.10,2013-03-07 17:52:00,
2013-03-07 13:07:00,48.9,32.0,30.17,West,269,1.0,3.0,52,0.00,,,0.00,weatherlink.com 1.10,2013-03-07 18:07:00,
2013-03-07 13:22:00,49.4,32.0,30.16,SW,227,1.0,4.0,51,0.00,,,0.00,weatherlink.com 1.10,2013-03-07 18:22:00,
2013-03-07 13:37:00,48.7,32.0,30.16,North,360,1.0,5.0,53,0.00,,,0.00,weatherlink.com 1.10,2013-03-07 18:37:00,
2013-03-07 13:52:00,48.8,31.0,30.15,WNW,288,0.0,4.0,51,0.00,,,0.00,weatherlink.com 1.10,2013-03-07 18:52:00,
2013-03-07 14:07:00,49.0,31.0,30.15,North,360,0.0,3.0,50,0.00,,,0.00,weatherlink.com 1.10,2013-03-07 19:07:00,
2013-03-07 14:22:00,49.1,31.0,30.15,NNE,18,0.0,6.0,50,0.00,,,0.00,weatherlink.com 1.10,2013-03-07 19:22:00,
2013-03-07 14:37:00,48.9,32.0,30.15,WNW,291,1.0,4.0,52,0.00,,,0.00,weatherlink.com 1.10,2013-03-07 19:37:00,
2013-03-07 14:52:00,49.3,31.0,30.15,North,360,0.0,7.0,49,0.00,,,0.00,weatherlink.com 1.10,2013-03-07 19:52:00,
2013-03-07 15:07:00,49.8,32.0,30.15,NNE,16,5.0,5.0,50,0.00,,,0.00,weatherlink.com 1.10,2013-03-07 20:07:00,
2013-03-07 15:22:00,50.5,31.0,30.15,NNW,343,0.0,6.0,48,0.00,,,0.00,weatherlink.com 1.10,2013-03-07 20:22:00,
2013-03-07 15:37:00,51.4,31.0,30.15,North,360,2.0,5.0,46,0.00,,,0.00,weatherlink.com 1.10,2013-03-07 20:37:00,
2013-03-07 15:52:00,51.4,31.0,30.15,North,351,2.0,5.0,45,0.00,,,0.00,weatherlink.com 1.10,2013-03-07 20:52:00,
2013-03-07 16:07:00,50.7,31.0,30.15,North,360,1.0,5.0,47,0.00,,,0.00,weatherlink.com 1.10,2013-03-07 21:07:00,
2013-03-07 16:22:00,49.9,30.0,30.16,NW,314,0.0,8.0,46,0.00,,,0.00,weatherlink.com 1.10,2013-03-07 21:22:00,
2013-03-07 16:37:00,49.0,31.0,30.16,SSE,161,0.0,4.0,50,0.00,,,0.00,weatherlink.com 1.10,2013-03-07 21:37:00,
2013-03-07 16:52:00,49.2,30.0,30.17,North,5,0.0,5.0,48,0.00,,,0.00,weatherlink.com 1.10,2013-03-07 21:52:00,
2013-03-07 17:07:00,48.8,30.0,30.17,North,360,0.0,5.0,48,0.00,,,0.00,weatherlink.com 1.10,2013-03-07 22:07:00,
2013-03-07 17:22:00,48.5,30.0,30.18,NW,311,1.0,5.0,49,0.00,,,0.00,weatherlink.com 1.10,2013-03-07 22:22:00,
2013-03-07 17:37:00,47.8,29.0,30.18,North,360,0.0,3.0,49,0.00,,,0.00,weatherlink.com 1.10,2013-03-07 22:37:00,
2013-03-07 17:52:00,47.2,28.0,30.19,North,360,0.0,4.0,48,0.00,,,0.00,weatherlink.com 1.10,2013-03-07 22:52:00,
2013-03-07 18:07:00,46.5,30.0,30.20,NNW,333,0.0,3.0,53,0.00,,,0.00,weatherlink.com 1.10,2013-03-07 23:07:00,
2013-03-07 18:37:00,44.7,29.0,30.20,NNW,333,0.0,2.0,55,0.00,,,0.00,weatherlink.com 1.10,2013-03-07 23:37:00,
2013-03-07 18:52:00,44.0,29.0,30.21,NNW,333,0.0,1.0,57,0.00,,,0.00,weatherlink.com 1.10,2013-03-07 23:52:00,
2013-03-07 19:07:00,43.2,30.0,30.21,NNW,333,0.0,0.0,59,0.00,,,0.00,weatherlink.com 1.10,2013-03-08 00:07:00,
2013-03-07 19:22:00,42.3,30.0,30.22,North,360,0.0,0.0,63,0.00,,,0.00,weatherlink.com 1.10,2013-03-08 00:22:00,
2013-03-07 19:37:00,41.4,30.0,30.23,NNW,333,0.0,0.0,64,0.00,,,0.00,weatherlink.com 1.10,2013-03-08 00:37:00,
2013-03-07 19:53:00,40.6,30.0,30.23,NNW,333,0.0,0.0,66,0.00,,,0.00,weatherlink.com 1.10,2013-03-08 00:53:00,
2013-03-07 20:08:00,40.0,30.0,30.23,NNW,333,0.0,0.0,68,0.00,,,0.00,weatherlink.com 1.10,2013-03-08 01:08:00,
2013-03-07 20:23:00,39.6,30.0,30.23,NNW,333,0.0,1.0,68,0.00,,,0.00,weatherlink.com 1.10,2013-03-08 01:23:00,
2013-03-07 20:38:00,39.5,29.0,30.24,NNW,334,0.0,1.0,67,0.00,,,0.00,weatherlink.com 1.10,2013-03-08 01:38:00,
2013-03-07 20:53:00,39.7,28.0,30.25,North,360,0.0,1.0,64,0.00,,,0.00,weatherlink.com 1.10,2013-03-08 01:53:00,
2013-03-07 21:08:00,39.9,28.0,30.25,NNW,346,0.0,1.0,63,0.00,,,0.00,weatherlink.com 1.10,2013-03-08 02:08:00,
2013-03-07 21:23:00,39.7,28.0,30.25,North,360,0.0,2.0,63,0.00,,,0.00,weatherlink.com 1.10,2013-03-08 02:23:00,
2013-03-07 21:38:00,39.2,28.0,30.25,NNW,346,0.0,1.0,65,0.00,,,0.00,weatherlink.com 1.10,2013-03-08 02:38:00,
2013-03-07 21:53:00,38.7,28.0,30.25,NNW,346,0.0,1.0,66,0.00,,,0.00,weatherlink.com 1.10,2013-03-08 02:53:00,
2013-03-07 22:08:00,38.2,28.0,30.25,North,360,0.0,0.0,66,0.00,,,0.00,weatherlink.com 1.10,2013-03-08 03:08:00,
2013-03-07 22:23:00,37.8,28.0,30.25,North,360,0.0,0.0,67,0.00,,,0.00,weatherlink.com 1.10,2013-03-08 03:23:00,
2013-03-07 22:38:00,37.5,28.0,30.26,NNW,346,0.0,0.0,68,0.00,,,0.00,weatherlink.com 1.10,2013-03-08 03:38:00,
2013-03-07 22:53:00,37.1,27.0,30.26,NNW,346,0.0,0.0,68,0.00,,,0.00,weatherlink.com 1.10,2013-03-08 03:53:00,
2013-03-07 23:08:00,36.8,27.0,30.26,NNW,346,0.0,1.0,68,0.00,,,0.00,weatherlink.com 1.10,2013-03-08 04:08:00,
2013-03-07 23:23:00,36.6,27.0,30.25,NNW,346,0.0,0.0,68,0.00,,,0.00,weatherlink.com 1.10,2013-03-08 04:23:00,
2013-03-07 23:38:00,36.4,27.0,30.26,NNW,346,0.0,1.0,68,0.00,,,0.00,weatherlink.com 1.10,2013-03-08 04:38:00,
2013-03-07 23:53:00,36.1,27.0,30.25,North,349,0.0,2.0,70,0.00,,,0.00,weatherlink.com 1.10,2013-03-08 04:53:00,